Time;durP1;ratioP1;P1;durP2;ratioP2;P2;SDS_P1;SDS_P2;PMS_P1;PMS_P2;Temp;Humidity;BMP_temperature;BMP_pressure;BME280_temperature;BME280_humidity;BME280_pressure;Samples;Min_cycle;Max_cycle;Signal;HPM_P1;HPM_P2
2022/06/20 00:02:24;;;;;;;5.22;5.03;;;;;;;14.45;93.10;100791.66;6082741;23;20305;-68
2022/06/20 00:04:53;;;;;;;6.05;5.75;;;;;;;14.39;92.93;100788.56;6075522;23;20018;-67
2022/06/20 00:07:21;;;;;;;5.13;4.93;;;;;;;14.53;93.62;100821.06;6072470;23;20076;-67
2022/06/20 00:09:48;;;;;;;6.90;6.60;;;;;;;13.43;93.72;100652.38;6036404;23;20018;-66
2022/06/20 00:12:21;;;;;;;4.90;4.70;;;;;;;14.54;93.95;100829.81;6052317;23;20106;-67
2022/06/20 00:14:51;;;;;;;6.20;5.90;;;;;;;14.55;94.77;100831.50;6046103;23;20341;-67
2022/06/20 00:17:18;;;;;;;4.55;4.35;;;;;;;14.58;93.73;100830.50;6053832;23;20018;-67
2022/06/20 00:19:45;;;;;;;5.50;5.28;;;;;;;14.50;94.08;100789.56;6035581;23;20175;-67
2022/06/20 00:22:12;;;;;;;4.88;4.68;;;;;;;14.56;94.49;100785.69;6060528;23;21068;-67
2022/06/20 00:24:38;;;;;;;4.90;4.70;;;;;;;14.50;95.19;100779.00;6066111;23;20057;-67
2022/06/20 00:27:10;;;;;;;4.57;4.38;;;;;;;14.35;94.95;100753.59;6083766;23;20168;-68
2022/06/20 00:29:38;;;;;;;4.93;4.73;;;;;;;14.33;95.77;100739.66;6058061;23;20045;-67
2022/06/20 00:32:06;;;;;;;6.35;5.80;;;;;;;14.48;96.49;100743.09;6062047;23;20533;-67
2022/06/20 00:34:33;;;;;;;5.85;5.55;;;;;;;14.16;95.70;100682.75;6082436;23;20029;-67
2022/06/20 00:37:00;;;;;;;6.03;5.72;;;;;;;14.48;96.84;100719.31;6069258;23;20013;-68
2022/06/20 00:39:27;;;;;;;4.63;4.43;;;;;;;14.47;97.38;100712.31;6066498;23;20399;-69
2022/06/20 00:41:54;;;;;;;6.60;6.30;;;;;;;14.23;98.27;100689.31;6079130;23;20136;-67
2022/06/20 00:44:28;;;;;;;4.70;4.50;;;;;;;14.43;98.69;100716.13;6059353;23;20042;-66
2022/06/20 00:47:00;;;;;;;6.25;5.95;;;;;;;14.39;97.81;100715.47;6049647;23;20328;-67
2022/06/20 00:49:29;;;;;;;;;;;;;;;14.40;98.12;100735.69;6049101;23;20467;-66
2022/06/20 00:52:11;;;;;;;6.38;6.07;;;;;;;14.33;98.31;100734.38;6054218;23;19943;-66
2022/06/20 00:54:46;;;;;;;4.65;4.45;;;;;;;14.26;99.25;100726.03;6041135;23;20491;-66
2022/06/20 00:57:27;;;;;;;4.57;4.38;;;;;;;14.49;98.96;100776.44;6069217;23;20097;-67
2022/06/20 01:00:10;;;;;;;6.13;5.82;;;;;;;14.56;99.37;100806.81;6073595;23;20068;-67
2022/06/20 01:02:43;;;;;;;4.60;4.40;;;;;;;14.60;98.91;100826.78;6099098;23;20015;-70
2022/06/20 01:05:17;;;;;;;4.75;4.55;;;;;;;14.63;98.34;100844.22;6075335;23;20360;-71
2022/06/20 01:07:50;;;;;;;5.75;5.47;;;;;;;14.67;98.97;100869.47;6090831;23;20024;-70
2022/06/20 01:10:19;;;;;;;4.70;4.50;;;;;;;14.73;100.00;100906.94;6065655;23;20495;-70
2022/06/20 01:12:58;;;;;;;5.65;5.40;;;;;;;14.76;100.00;100948.97;6069286;23;20014;-73
2022/06/20 01:15:34;;;;;;;4.90;4.70;;;;;;;14.88;100.00;101000.16;6042818;23;20028;-74
2022/06/20 01:18:03;;;;;;;5.32;5.13;;;;;;;14.69;100.00;101011.09;6050606;23;20034;-70
2022/06/20 01:20:33;;;;;;;4.50;4.30;;;;;;;14.06;100.00;100927.94;6059695;23;20455;-71
2022/06/20 01:23:31;;;;;;;6.00;5.70;;;;;;;13.87;100.00;100906.28;6050883;23;20022;-67
2022/06/20 01:26:21;;;;;;;5.57;5.38;;;;;;;14.72;100.00;101053.16;6057457;23;20055;-67
2022/06/20 01:28:52;;;;;;;6.28;5.97;;;;;;;14.63;100.00;101058.19;6078433;23;20041;-67
2022/06/20 01:31:21;;;;;;;4.75;4.55;;;;;;;14.61;100.00;101050.34;6088007;23;20022;-67
2022/06/20 01:33:49;;;;;;;6.13;5.82;;;;;;;14.32;100.00;101010.75;6084572;23;20108;-67
2022/06/20 01:39:03;;;;;;;4.90;4.70;;;;;;;14.21;100.00;100980.69;6061330;23;20040;-67
2022/06/20 01:44:17;;;;;;;4.50;4.30;;;;;;;14.33;100.00;100998.41;6087324;23;20025;-67
2022/06/20 01:46:44;;;;;;;5.57;5.32;;;;;;;14.31;100.00;101000.28;6085426;23;20015;-67
2022/06/20 01:49:16;;;;;;;6.72;6.43;;;;;;;14.06;100.00;100959.59;6078732;23;20530;-67
2022/06/20 01:51:50;;;;;;;5.25;5.03;;;;;;;14.25;100.00;100975.16;6085507;23;20021;-66
2022/06/20 01:54:18;;;;;;;4.70;4.50;;;;;;;14.08;100.00;100947.16;6090975;23;20028;-68
2022/06/20 01:56:47;;;;;;;6.03;5.75;;;;;;;13.92;100.00;100923.53;6074896;23;20010;-67
2022/06/20 01:59:20;;;;;;;5.30;5.00;;;;;;;13.71;100.00;100870.31;6090961;23;20501;-67
2022/06/20 02:01:48;;;;;;;6.13;5.82;;;;;;;13.52;100.00;100836.34;6075622;23;20107;-68
2022/06/20 02:04:19;;;;;;;5.05;4.85;;;;;;;13.35;100.00;100807.56;6048049;23;20415;-68
2022/06/20 02:06:47;;;;;;;5.95;5.68;;;;;;;13.61;100.00;100815.59;6078569;23;20030;-67
2022/06/20 02:09:15;;;;;;;5.10;4.80;;;;;;;13.29;100.00;100737.63;6086722;23;20173;-68
2022/06/20 02:11:44;;;;;;;4.90;4.70;;;;;;;13.48;100.00;100768.09;6071900;23;20030;-67
2022/06/20 02:14:28;;;;;;;4.90;4.70;;;;;;;13.40;100.00;100736.94;6079003;23;20044;-68
2022/06/20 02:17:00;;;;;;;6.47;6.18;;;;;;;13.04;100.00;100672.38;6071974;23;20006;-67
2022/06/20 02:19:31;;;;;;;;;;;;;;;13.29;100.00;100703.34;6086481;23;20124;-68
2022/06/20 02:22:01;;;;;;;6.57;6.28;;;;;;;13.22;100.00;100680.09;6063835;23;20137;-68
2022/06/20 02:24:41;;;;;;;4.90;4.70;;;;;;;12.93;100.00;100638.81;6059131;23;20042;-68
2022/06/20 02:27:14;;;;;;;5.10;4.90;;;;;;;13.00;100.00;100644.53;6049377;23;20014;-68
2022/06/20 02:29:41;;;;;;;5.15;4.95;;;;;;;12.78;100.00;100585.31;6056029;23;20034;-69
2022/06/20 02:32:17;;;;;;;4.55;4.35;;;;;;;12.91;100.00;100587.16;6057225;23;20011;-68
2022/06/20 02:34:44;;;;;;;5.93;5.65;;;;;;;12.87;100.00;100551.44;6065295;23;20315;-69
2022/06/20 02:37:14;;;;;;;4.65;4.45;;;;;;;12.80;100.00;100524.66;6053127;23;20018;-69
2022/06/20 02:39:43;;;;;;;4.95;4.75;;;;;;;12.69;100.00;100488.50;6057395;23;20022;-68
2022/06/20 02:42:15;;;;;;;5.00;4.80;;;;;;;12.79;100.00;100536.16;6045424;23;20018;-68
2022/06/20 02:44:44;;;;;;;4.97;4.78;;;;;;;12.69;100.00;100561.34;6053457;23;20208;-68
2022/06/20 02:47:11;;;;;;;4.50;4.30;;;;;;;12.69;100.00;100570.13;6054883;23;21092;-69
2022/06/20 02:49:40;;;;;;;4.57;4.38;;;;;;;12.47;100.00;100536.41;6056572;23;20480;-68
2022/06/20 02:52:10;;;;;;;4.35;4.15;;;;;;;12.62;100.00;100566.16;6051407;23;20450;-68
2022/06/20 02:54:39;;;;;;;4.70;4.50;;;;;;;12.68;100.00;100599.16;6052472;23;20015;-70
2022/06/20 02:57:15;;;;;;;4.50;4.30;;;;;;;12.45;100.00;100582.16;6049804;23;20290;-69
2022/06/20 02:59:54;;;;;;;4.65;4.45;;;;;;;12.37;100.00;100586.13;6057161;23;20022;-69
2022/06/20 03:02:27;;;;;;;4.68;4.47;;;;;;;12.37;100.00;100590.56;6051959;23;20020;-69
2022/06/20 03:04:54;;;;;;;6.65;6.35;;;;;;;12.53;100.00;100645.72;6052735;23;20038;-69
2022/06/20 03:07:32;;;;;;;4.40;4.20;;;;;;;12.47;100.00;100617.13;6053431;23;20233;-69
2022/06/20 03:10:20;;;;;;;4.80;4.60;;;;;;;12.38;100.00;100608.00;6056179;23;20033;-69
2022/06/20 03:12:47;;;;;;;5.88;5.60;;;;;;;12.58;100.00;100641.00;6052949;23;20021;-69
2022/06/20 03:15:15;;;;;;;4.30;4.10;;;;;;;12.52;100.00;100633.50;6075046;23;20006;-69
2022/06/20 03:17:45;;;;;;;4.82;4.63;;;;;;;12.42;100.00;100606.88;6034113;23;20464;-68
2022/06/20 03:20:14;;;;;;;4.50;4.30;;;;;;;12.45;100.00;100621.63;6061561;23;20048;-69
2022/06/20 03:22:47;;;;;;;4.32;4.13;;;;;;;12.44;100.00;100626.06;6084949;23;20024;-68
2022/06/20 03:25:15;;;;;;;5.13;4.93;;;;;;;12.44;100.00;100638.38;6063113;23;20105;-68
2022/06/20 03:27:43;;;;;;;4.97;4.78;;;;;;;12.45;100.00;100671.63;6077566;23;20351;-68
2022/06/20 03:30:24;;;;;;;4.50;4.30;;;;;;;12.42;100.00;100654.25;6088628;23;20446;-68
2022/06/20 03:32:51;;;;;;;6.25;5.95;;;;;;;12.48;100.00;100653.88;6102193;23;20028;-69
2022/06/20 03:35:18;;;;;;;4.70;4.50;;;;;;;12.36;100.00;100639.69;6122006;23;20126;-69
2022/06/20 03:37:44;;;;;;;4.95;4.75;;;;;;;12.50;100.00;100659.06;6113121;23;20092;-70
2022/06/20 03:40:11;;;;;;;4.40;4.20;;;;;;;12.55;100.00;100659.66;6108863;23;20080;-71
2022/06/20 03:42:38;;;;;;;4.22;4.03;;;;;;;12.57;100.00;100655.13;6107327;23;20024;-70
2022/06/20 03:45:07;;;;;;;4.50;4.30;;;;;;;12.45;100.00;100655.84;6108937;23;20029;-71
2022/06/20 03:47:41;;;;;;;18.10;17.20;;;;;;;12.56;100.00;100679.75;6073038;23;20473;-70
2022/06/20 03:50:13;;;;;;;5.15;4.75;;;;;;;12.62;100.00;100710.13;6052005;23;20029;-71
2022/06/20 03:52:49;;;;;;;4.53;4.32;;;;;;;12.57;100.00;100726.22;6114534;23;20009;-70
2022/06/20 03:55:24;;;;;;;4.70;4.50;;;;;;;12.46;100.00;100741.78;6111991;23;20018;-69
2022/06/20 03:57:58;;;;;;;6.22;5.93;;;;;;;12.75;100.00;100796.19;6095600;23;20477;-72
2022/06/20 04:00:35;;;;;;;4.65;4.45;;;;;;;12.83;100.00;100831.75;6117045;23;20041;-71
2022/06/20 04:03:10;;;;;;;5.53;5.28;;;;;;;12.84;100.00;100846.63;6105061;23;20116;-70
2022/06/20 04:05:45;;;;;;;5.18;4.88;;;;;;;12.88;100.00;100870.03;6113912;23;20021;-72
2022/06/20 04:08:15;;;;;;;4.60;4.40;;;;;;;12.92;100.00;100876.81;6105073;23;20195;-71
2022/06/20 04:10:59;;;;;;;4.70;4.50;;;;;;;12.97;100.00;100884.47;6108319;23;20046;-69
2022/06/20 04:13:47;;;;;;;4.50;4.30;;;;;;;12.98;100.00;100897.53;6111144;23;20129;-70
2022/06/20 04:16:23;;;;;;;4.68;4.47;;;;;;;12.80;100.00;100876.72;6108121;23;20186;-70
2022/06/20 04:19:11;;;;;;;6.53;6.13;;;;;;;13.10;100.00;100917.03;6101112;23;20022;-70
2022/06/20 04:21:49;;;;;;;4.40;4.20;;;;;;;13.17;100.00;100926.28;6118309;23;20029;-69
2022/06/20 04:24:50;;;;;;;4.80;4.60;;;;;;;13.21;100.00;100924.34;6097989;23;20037;-70
2022/06/20 04:27:46;;;;;;;4.30;4.10;;;;;;;13.21;100.00;100926.97;6122734;23;20090;-70
2022/06/20 04:30:35;;;;;;;4.50;4.30;;;;;;;13.23;100.00;100935.63;6088741;23;20181;-70
2022/06/20 04:33:17;;;;;;;4.80;4.60;;;;;;;13.23;100.00;100932.13;6128214;23;20013;-71
2022/06/20 04:35:57;;;;;;;4.93;4.72;;;;;;;12.98;100.00;100902.81;6099367;23;20040;-71
2022/06/20 04:38:30;;;;;;;5.03;4.82;;;;;;;13.17;100.00;100942.09;6109216;23;20068;-69
2022/06/20 04:41:09;;;;;;;6.13;5.80;;;;;;;13.14;100.00;100955.44;6101293;23;20538;-72
2022/06/20 04:43:55;;;;;;;4.65;4.45;;;;;;;13.17;100.00;100954.44;6106389;23;20422;-69
2022/06/20 04:46:29;;;;;;;4.70;4.50;;;;;;;13.20;100.00;100953.41;6110961;23;20013;-72
2022/06/20 04:48:56;;;;;;;5.75;5.50;;;;;;;13.18;100.00;100945.59;6119547;23;20525;-70
2022/06/20 04:51:33;;;;;;;4.90;4.70;;;;;;;13.24;100.00;100944.38;6108910;23;20037;-69
2022/06/20 04:54:00;;;;;;;5.07;4.88;;;;;;;13.02;100.00;100906.13;6109848;23;20525;-69
2022/06/20 04:56:27;;;;;;;4.97;4.68;;;;;;;12.97;100.00;100887.94;6109564;23;21227;-70
2022/06/20 04:59:02;;;;;;;5.80;5.57;;;;;;;12.97;100.00;100889.75;6112795;23;20029;-71
2022/06/20 05:01:32;;;;;;;4.55;4.35;;;;;;;13.08;100.00;100897.00;6114231;23;20206;-69
2022/06/20 05:04:07;;;;;;;6.40;6.00;;;;;;;13.13;100.00;100905.50;6109883;23;20021;-71
2022/06/20 05:06:36;;;;;;;4.80;4.60;;;;;;;12.77;100.00;100851.41;6087597;23;20212;-71
2022/06/20 05:09:19;;;;;;;4.70;4.50;;;;;;;13.04;100.00;100891.06;6114603;23;20022;-69
2022/06/20 05:11:51;;;;;;;6.38;5.88;;;;;;;13.09;100.00;100885.50;6097024;23;20664;-71
2022/06/20 05:14:28;;;;;;;4.55;4.35;;;;;;;12.83;100.00;100852.81;6102920;23;20025;-71
2022/06/20 05:16:59;;;;;;;5.75;5.53;;;;;;;13.17;100.00;100892.03;6121670;23;20382;-71
2022/06/20 05:19:39;;;;;;;4.60;4.40;;;;;;;13.21;100.00;100889.19;6105889;23;20386;-71
2022/06/20 05:22:16;;;;;;;4.53;4.32;;;;;;;13.02;100.00;100866.59;6115497;23;20961;-71
2022/06/20 05:24:44;;;;;;;4.53;4.32;;;;;;;13.00;100.00;100868.47;6095846;23;20332;-71
2022/06/20 05:27:24;;;;;;;4.68;4.45;;;;;;;13.03;100.00;100859.53;6103873;23;20005;-71
2022/06/20 05:29:54;;;;;;;5.93;5.65;;;;;;;12.91;100.00;100838.28;6074190;23;20091;-69
2022/06/20 05:32:32;;;;;;;4.65;4.45;;;;;;;13.18;100.00;100885.81;6099509;23;20011;-71
2022/06/20 05:35:08;;;;;;;5.55;5.35;;;;;;;13.15;100.00;100883.38;6078480;23;20457;-69
2022/06/20 05:37:39;;;;;;;4.43;4.22;;;;;;;13.16;100.00;100886.84;6070002;23;20034;-69
2022/06/20 05:40:08;;;;;;;4.40;4.20;;;;;;;13.08;100.00;100892.56;6073003;23;20342;-69
2022/06/20 05:42:35;;;;;;;4.28;4.07;;;;;;;12.99;100.00;100872.06;6081963;23;20026;-72
2022/06/20 05:45:11;;;;;;;4.63;4.43;;;;;;;12.96;100.00;100874.88;6078963;23;20355;-69
2022/06/20 05:47:39;;;;;;;4.45;4.20;;;;;;;12.97;100.00;100893.22;6086536;23;20081;-71
2022/06/20 05:50:14;;;;;;;4.68;4.47;;;;;;;12.93;100.00;100881.16;6096942;23;20025;-70
2022/06/20 05:52:44;;;;;;;4.55;4.35;;;;;;;12.88;100.00;100892.91;6081929;23;20020;-71
2022/06/20 05:55:21;;;;;;;4.78;4.53;;;;;;;11.88;100.00;100725.78;6082356;23;20099;-71
2022/06/20 05:57:49;;;;;;;4.60;4.40;;;;;;;12.91;100.00;100896.22;6089871;23;20034;-72
2022/06/20 06:00:22;;;;;;;4.30;4.10;;;;;;;12.92;100.00;100895.25;6077003;23;20027;-71
2022/06/20 06:02:54;;;;;;;5.90;5.60;;;;;;;12.85;100.00;100890.44;6081123;23;20018;-69
2022/06/20 06:05:48;;;;;;;4.32;4.13;;;;;;;12.94;100.00;100890.75;6080412;23;20533;-70
2022/06/20 06:08:28;;;;;;;4.60;4.40;;;;;;;12.98;100.00;100884.38;6073926;23;20010;-72
2022/06/20 06:11:29;;;;;;;6.47;5.07;;;;;;;12.96;100.00;100878.34;6069910;23;20270;-69
2022/06/20 06:14:20;;;;;;;6.22;5.68;;;;;;;12.94;100.00;100866.19;6082223;23;20028;-69
2022/06/20 06:16:58;;;;;;;5.60;5.30;;;;;;;12.93;100.00;100872.44;6056238;23;20017;-69
2022/06/20 06:19:44;;;;;;;4.63;4.43;;;;;;;12.94;100.00;100879.38;6075282;23;20014;-69
2022/06/20 06:22:19;;;;;;;4.80;4.60;;;;;;;13.02;100.00;100885.03;6069606;23;20089;-70
2022/06/20 06:24:48;;;;;;;5.55;5.25;;;;;;;12.82;100.00;100859.88;6078646;23;20251;-69
2022/06/20 06:27:29;;;;;;;4.60;4.40;;;;;;;13.00;100.00;100889.56;6081694;23;20173;-71
2022/06/20 06:30:29;;;;;;;5.85;5.57;;;;;;;13.12;100.00;100911.69;6080815;23;20021;-68
2022/06/20 06:33:04;;;;;;;5.97;5.68;;;;;;;12.88;100.00;100875.31;6057960;23;20479;-69
2022/06/20 06:35:35;;;;;;;4.60;4.40;;;;;;;13.10;100.00;100908.28;6080139;23;20392;-68
2022/06/20 06:38:09;;;;;;;4.90;4.70;;;;;;;13.14;100.00;100896.63;6075425;23;20057;-71
2022/06/20 06:40:48;;;;;;;4.70;4.50;;;;;;;12.88;100.00;100871.84;6085874;23;20014;-68
2022/06/20 06:43:17;;;;;;;4.50;4.30;;;;;;;13.14;100.00;100923.81;6049277;23;20038;-69
2022/06/20 06:45:45;;;;;;;5.07;4.88;;;;;;;13.10;100.00;100908.28;6058346;23;20470;-69
2022/06/20 06:48:26;;;;;;;4.70;4.50;;;;;;;13.31;100.00;100920.22;6071195;23;20097;-69
2022/06/20 06:51:02;;;;;;;5.93;5.65;;;;;;;13.48;100.00;100948.19;6074812;23;20053;-69
2022/06/20 06:53:47;;;;;;;4.65;4.45;;;;;;;13.29;100.00;100923.84;6069143;23;20014;-69
2022/06/20 06:56:33;;;;;;;4.90;4.70;;;;;;;13.57;100.00;100950.28;6085197;23;20010;-69
2022/06/20 06:59:13;;;;;;;5.55;5.35;;;;;;;13.38;100.00;100933.03;6060214;23;20109;-69
2022/06/20 07:01:47;;;;;;;4.65;4.45;;;;;;;13.32;100.00;100936.88;6069064;23;20125;-68
2022/06/20 07:04:20;;;;;;;4.80;4.60;;;;;;;13.44;100.00;100957.25;6096404;23;20018;-69
2022/06/20 07:06:56;;;;;;;5.70;5.45;;;;;;;13.30;100.00;100965.13;6024085;23;20027;-69
2022/06/20 07:09:31;;;;;;;4.60;4.40;;;;;;;13.10;100.00;100929.38;6080271;23;20022;-69
2022/06/20 07:12:13;;;;;;;6.40;6.10;;;;;;;13.23;100.00;100966.38;6072175;23;20014;-69
2022/06/20 07:14:42;;;;;;;4.80;4.60;;;;;;;13.23;100.00;100979.56;6058283;23;20029;-69
2022/06/20 07:17:22;;;;;;;4.50;4.30;;;;;;;13.21;99.86;100991.97;6062063;23;20021;-69
2022/06/20 07:19:51;;;;;;;6.10;5.80;;;;;;;13.09;100.00;100957.53;6070321;23;20371;-69
2022/06/20 07:22:21;;;;;;;4.40;4.20;;;;;;;13.13;100.00;100979.28;6082156;23;20162;-70
2022/06/20 07:24:50;;;;;;;4.63;4.43;;;;;;;13.37;100.00;100998.09;6083959;23;20261;-69
2022/06/20 07:27:31;;;;;;;4.30;4.10;;;;;;;13.51;99.68;100995.50;6105354;23;20009;-69
2022/06/20 07:30:13;;;;;;;6.75;6.45;;;;;;;13.67;100.00;100990.16;6095360;23;20046;-69
2022/06/20 07:32:46;;;;;;;4.47;4.28;;;;;;;13.71;100.00;100985.50;6112855;23;20035;-69
2022/06/20 07:35:18;;;;;;;4.60;4.40;;;;;;;13.79;98.04;100977.13;6091218;23;20193;-69
2022/06/20 07:37:54;;;;;;;;;;;;;;;13.83;94.20;100986.56;6111590;23;20096;-68
2022/06/20 07:40:42;;;;;;;4.47;4.28;;;;;;;13.67;93.78;100981.38;6098701;23;19921;-69
2022/06/20 07:43:16;;;;;;;5.15;4.45;;;;;;;13.68;96.22;100972.53;6119598;23;20017;-69
2022/06/20 07:45:49;;;;;;;5.13;4.93;;;;;;;13.55;96.69;100960.09;6110457;23;20458;-69
2022/06/20 07:48:26;;;;;;;4.60;4.40;;;;;;;13.78;98.75;100976.28;6113933;23;20013;-69
2022/06/20 07:51:19;;;;;;;6.75;6.35;;;;;;;13.76;97.40;100955.28;6097903;23;20025;-69
2022/06/20 07:53:49;;;;;;;5.47;5.25;;;;;;;13.87;98.70;100969.59;6106176;23;20029;-69
2022/06/20 07:56:38;;;;;;;4.50;4.30;;;;;;;14.24;100.00;100976.06;6101720;23;20013;-69
2022/06/20 07:59:36;;;;;;;4.88;4.68;;;;;;;14.88;100.00;101000.16;6103987;23;20017;-69
2022/06/20 08:02:32;;;;;;;5.20;4.90;;;;;;;15.23;98.79;101004.06;6101989;23;20797;-69
2022/06/20 08:05:00;;;;;;;6.20;5.90;;;;;;;15.40;97.09;101022.31;6106498;23;20053;-69
2022/06/20 08:08:24;;;;;;;5.00;4.80;;;;;;;15.56;93.57;101024.75;6099138;23;21314;-69
2022/06/20 08:11:01;;;;;;;6.30;6.00;;;;;;;15.67;91.80;101035.44;6013260;23;20034;-69
2022/06/20 08:13:38;;;;;;;4.80;4.60;;;;;;;15.66;87.71;101038.22;6084600;23;20092;-69
2022/06/20 08:16:26;;;;;;;5.20;4.90;;;;;;;16.45;88.71;101038.91;6073733;23;20982;-69
2022/06/20 08:18:52;;;;;;;6.40;6.10;;;;;;;16.70;85.53;101024.75;6084408;23;20027;-70
2022/06/20 08:21:33;;;;;;;4.95;4.72;;;;;;;17.17;83.46;101067.31;6104512;23;20185;-71
2022/06/20 08:24:17;;;;;;;5.63;5.43;;;;;;;17.23;82.42;101069.53;6086476;23;20311;-71
2022/06/20 08:26:57;;;;;;;5.63;5.38;;;;;;;16.99;83.32;101075.66;6079634;23;20040;-71
2022/06/20 08:29:31;;;;;;;5.95;5.65;;;;;;;16.68;84.19;101032.81;6074410;23;20129;-71
2022/06/20 08:32:07;;;;;;;8.18;7.47;;;;;;;16.35;85.30;101034.25;6091750;23;20493;-70
2022/06/20 08:34:45;;;;;;;6.28;5.97;;;;;;;16.51;84.65;101086.16;6094711;23;20021;-70
2022/06/20 08:37:24;;;;;;;5.50;5.30;;;;;;;16.88;85.71;101086.22;6086555;23;20024;-70
2022/06/20 08:40:10;;;;;;;7.55;7.15;;;;;;;16.90;85.49;101079.84;6082612;23;20022;-70
2022/06/20 08:43:08;;;;;;;5.70;5.40;;;;;;;16.18;85.95;100949.91;6096705;23;20104;-70
2022/06/20 08:46:20;;;;;;;6.95;6.65;;;;;;;17.38;84.07;101076.34;6091196;23;20021;-71
2022/06/20 08:49:14;;;;;;;6.88;6.57;;;;;;;17.17;84.60;101067.31;6035968;23;20055;-71
2022/06/20 08:52:12;;;;;;;5.72;5.43;;;;;;;17.23;85.95;101088.09;6096721;23;20087;-70
2022/06/20 08:54:57;;;;;;;5.32;5.13;;;;;;;17.13;86.17;101086.09;6099258;23;20097;-71
2022/06/20 08:57:50;;;;;;;5.20;5.00;;;;;;;17.05;83.35;101085.81;6084435;23;20014;-70
2022/06/20 09:00:52;;;;;;;5.90;5.50;;;;;;;16.66;81.87;101084.25;6082017;23;20045;-71
2022/06/20 09:03:56;;;;;;;5.65;5.13;;;;;;;16.20;86.41;101090.16;6086207;23;20077;-71
2022/06/20 09:06:34;;;;;;;5.20;5.00;;;;;;;16.46;88.18;101085.66;6099357;23;20085;-70
2022/06/20 09:09:10;;;;;;;5.78;5.47;;;;;;;16.66;88.79;101085.09;6088046;23;20321;-70
2022/06/20 09:11:51;;;;;;;5.13;4.93;;;;;;;15.72;87.78;100919.59;6081575;23;20014;-70
2022/06/20 09:14:36;;;;;;;6.15;5.75;;;;;;;17.17;87.34;101081.41;6082877;23;20018;-70
2022/06/20 09:17:22;;;;;;;6.15;5.85;;;;;;;17.68;81.83;101088.22;6082314;23;20010;-70
2022/06/20 09:20:17;;;;;;;7.03;6.68;;;;;;;18.19;79.75;101087.88;6067954;23;20390;-71
2022/06/20 09:23:12;;;;;;;6.07;5.78;;;;;;;18.71;76.39;101094.38;6091507;23;20044;-76
2022/06/20 09:25:39;;;;;;;6.63;5.65;;;;;;;19.09;68.64;101089.63;6087969;23;20022;-72
2022/06/20 09:28:23;;;;;;;5.65;5.35;;;;;;;19.70;68.65;101086.31;6095100;23;20104;-70
2022/06/20 09:31:03;;;;;;;6.35;6.05;;;;;;;19.71;66.48;101085.38;6086097;23;20083;-70
2022/06/20 09:33:57;;;;;;;5.65;5.30;;;;;;;19.17;67.76;101110.28;6087364;23;20059;-75
2022/06/20 09:36:39;;;;;;;5.32;5.10;;;;;;;18.48;69.49;101108.66;6094929;23;20080;-75
2022/06/20 09:39:24;;;;;;;5.45;5.20;;;;;;;18.16;67.94;101113.84;6097264;23;20089;-74
2022/06/20 09:42:07;;;;;;;6.53;6.22;;;;;;;18.23;69.76;101086.69;6083156;23;20026;-68
2022/06/20 09:44:56;;;;;;;5.57;5.28;;;;;;;18.50;68.89;101114.69;6099159;23;20020;-71
2022/06/20 09:47:38;;;;;;;5.25;5.05;;;;;;;18.50;67.08;101120.00;6087588;23;20072;-69
2022/06/20 09:50:32;;;;;;;5.25;5.05;;;;;;;18.96;66.04;101118.19;6089933;23;20034;-69
2022/06/20 09:53:12;;;;;;;6.65;6.35;;;;;;;18.60;60.29;101115.69;6063616;23;20506;-71
2022/06/20 09:55:57;;;;;;;5.60;5.30;;;;;;;18.38;59.67;101119.19;6099513;23;20014;-71
2022/06/20 09:58:45;;;;;;;5.20;5.00;;;;;;;17.39;57.99;100966.59;6090857;23;20017;-69
2022/06/20 10:01:18;;;;;;;5.20;5.00;;;;;;;19.03;60.18;101106.09;6097085;23;21120;-71
2022/06/20 10:03:47;;;;;;;;;;;;;;;19.25;59.27;101114.00;6101943;23;20096;-69
2022/06/20 10:06:54;;;;;;;5.45;4.95;;;;;;;19.03;58.63;101116.72;6091550;23;19921;-68
2022/06/20 10:09:52;;;;;;;5.55;5.30;;;;;;;19.07;59.38;101124.31;6092098;23;20069;-69
2022/06/20 10:12:28;;;;;;;5.40;5.20;;;;;;;18.98;59.45;101092.31;6094506;23;20014;-70
2022/06/20 10:15:08;;;;;;;5.28;5.07;;;;;;;18.76;60.70;101101.97;6100829;23;20112;-69
2022/06/20 10:17:48;;;;;;;5.47;5.28;;;;;;;18.66;60.05;101130.28;6086325;23;20389;-69
2022/06/20 10:20:35;;;;;;;5.05;4.85;;;;;;;18.53;61.17;101136.56;6111589;23;20022;-69
2022/06/20 10:23:12;;;;;;;5.30;5.10;;;;;;;18.23;58.52;101139.81;6100808;23;20139;-73
2022/06/20 10:26:05;;;;;;;5.00;4.80;;;;;;;18.23;59.70;101144.28;6098862;23;20019;-69
2022/06/20 10:28:47;;;;;;;5.20;5.00;;;;;;;18.37;59.36;101137.91;6094201;23;20036;-73
2022/06/20 10:31:35;;;;;;;5.20;5.00;;;;;;;18.68;60.27;101145.16;6097681;23;20025;-70
2022/06/20 10:34:28;;;;;;;5.70;5.40;;;;;;;18.63;56.16;101110.09;6086197;23;20021;-70
2022/06/20 10:37:11;;;;;;;6.95;6.65;;;;;;;19.33;56.80;101137.31;6089149;23;20088;-70
2022/06/20 10:39:41;;;;;;;5.38;5.07;;;;;;;19.95;55.46;101148.22;6088622;23;20022;-69
2022/06/20 10:42:22;;;;;;;5.30;5.10;;;;;;;20.30;54.00;101155.84;6086623;23;20014;-74
2022/06/20 10:45:17;;;;;;;7.05;6.75;;;;;;;20.87;50.79;101149.09;6089444;23;20374;-70
2022/06/20 10:48:05;;;;;;;5.55;5.32;;;;;;;20.84;48.64;101149.38;6110237;23;20277;-69
2022/06/20 10:50:40;;;;;;;5.70;5.40;;;;;;;20.33;50.36;101153.75;6097708;23;20025;-69
2022/06/20 10:53:31;;;;;;;5.40;5.20;;;;;;;20.53;49.02;101148.53;6100596;23;20088;-70
2022/06/20 10:56:32;;;;;;;6.35;6.05;;;;;;;20.17;50.47;101144.56;6079964;23;20515;-74
2022/06/20 10:59:08;;;;;;;6.78;6.47;;;;;;;19.79;49.97;101140.69;6076433;23;20031;-69
2022/06/20 11:01:58;;;;;;;5.22;5.03;;;;;;;20.26;51.60;101130.44;6089883;23;20076;-72
2022/06/20 11:04:54;;;;;;;5.30;5.10;;;;;;;20.50;50.32;101148.78;6088294;23;20403;-70
2022/06/20 11:07:27;;;;;;;5.47;5.20;;;;;;;20.55;51.42;101143.91;6058357;23;20081;-69
2022/06/20 11:10:13;;;;;;;6.78;6.47;;;;;;;20.33;47.30;101148.44;6079144;23;20062;-70
2022/06/20 11:13:12;;;;;;;5.50;5.28;;;;;;;20.20;48.12;101083.81;6092136;23;20166;-69
2022/06/20 11:15:52;;;;;;;6.15;5.78;;;;;;;20.07;47.69;101086.72;6093026;23;20022;-70
2022/06/20 11:18:22;;;;;;;5.05;4.85;;;;;;;20.91;49.14;101150.53;6088570;23;20455;-70
2022/06/20 11:21:10;;;;;;;6.40;6.10;;;;;;;21.26;47.74;101149.16;6095802;23;20036;-70
2022/06/20 11:24:06;;;;;;;5.30;5.10;;;;;;;21.95;45.82;101149.19;6088307;23;20097;-70
2022/06/20 11:26:47;;;;;;;5.40;5.20;;;;;;;21.52;44.07;101128.13;6065364;23;20250;-69
2022/06/20 11:29:13;;;;;;;5.55;5.25;;;;;;;21.38;43.20;101151.72;6109644;23;20005;-70
2022/06/20 11:32:05;;;;;;;5.32;5.13;;;;;;;21.78;46.17;101146.25;6104152;23;20049;-70
2022/06/20 11:34:58;;;;;;;5.28;5.07;;;;;;;21.79;45.81;101129.25;6111322;23;20104;-70
2022/06/20 11:37:47;;;;;;;5.70;5.40;;;;;;;21.44;46.03;101151.19;6102569;23;20081;-73
2022/06/20 11:40:31;;;;;;;5.30;5.10;;;;;;;20.20;45.92;101096.31;6081198;23;20518;-70
2022/06/20 11:43:00;;;;;;;6.88;6.47;;;;;;;20.55;49.05;101146.56;6083880;23;20207;-70
2022/06/20 11:45:38;;;;;;;5.57;5.35;;;;;;;20.48;48.06;101146.25;6098603;23;20021;-69
2022/06/20 11:48:18;;;;;;;5.78;5.47;;;;;;;21.31;47.48;101146.09;6123914;23;20022;-73
2022/06/20 11:51:08;;;;;;;6.47;6.15;;;;;;;22.14;44.93;101153.66;6105135;23;20391;-69
2022/06/20 11:54:01;;;;;;;5.45;5.25;;;;;;;22.11;44.46;101147.63;6086401;23;20184;-70
2022/06/20 11:56:43;;;;;;;5.43;5.22;;;;;;;22.32;45.98;101116.34;6086977;23;20093;-70
2022/06/20 11:59:14;;;;;;;6.93;6.55;;;;;;;21.82;43.07;101154.84;6075439;23;20185;-71
2022/06/20 12:01:52;;;;;;;5.40;5.20;;;;;;;20.98;44.38;101028.06;6077358;23;20038;-73
2022/06/20 12:04:36;;;;;;;5.40;5.20;;;;;;;21.29;44.92;100985.22;6094419;23;20385;-74
2022/06/20 12:07:31;;;;;;;5.80;5.50;;;;;;;22.65;41.25;101131.84;6083695;23;20324;-73
2022/06/20 12:10:14;;;;;;;6.82;6.53;;;;;;;22.92;41.31;101134.66;6091738;23;20033;-72
2022/06/20 12:12:52;;;;;;;6.22;5.82;;;;;;;22.88;40.27;101136.78;6070087;23;20478;-74
2022/06/20 12:15:44;;;;;;;5.55;5.35;;;;;;;22.99;39.76;101138.41;6101977;23;20477;-73
2022/06/20 12:24:26;;;;;;;5.30;5.10;;;;;;;21.88;42.39;101099.00;6104941;23;20031;-72